sensor_id;sensor_type;location;lat;lon;timestamp;P1;durP1;ratioP1;P2;durP2;ratioP2
4676;SDS011;2352;48.180;11.478;2023-11-19T00:02:41;1.30;;;1.30;;
4676;SDS011;2352;48.180;11.478;2023-11-19T00:05:44;1.70;;;1.60;;
4676;SDS011;2352;48.180;11.478;2023-11-19T00:08:48;1.50;;;1.40;;
4676;SDS011;2352;48.180;11.478;2023-11-19T00:11:51;1.40;;;1.30;;
4676;SDS011;2352;48.180;11.478;2023-11-19T00:14:57;2.28;;;2.17;;
4676;SDS011;2352;48.180;11.478;2023-11-19T00:18:02;1.88;;;1.77;;
4676;SDS011;2352;48.180;11.478;2023-11-19T00:21:06;4.00;;;1.85;;
4676;SDS011;2352;48.180;11.478;2023-11-19T00:24:11;1.48;;;1.38;;
4676;SDS011;2352;48.180;11.478;2023-11-19T00:27:17;1.65;;;1.55;;
4676;SDS011;2352;48.180;11.478;2023-11-19T00:30:20;1.50;;;1.40;;
4676;SDS011;2352;48.180;11.478;2023-11-19T00:33:26;1.37;;;1.27;;
4676;SDS011;2352;48.180;11.478;2023-11-19T00:36:30;1.27;;;1.20;;
4676;SDS011;2352;48.180;11.478;2023-11-19T00:39:33;1.60;;;1.50;;
4676;SDS011;2352;48.180;11.478;2023-11-19T00:42:37;1.50;;;1.40;;
4676;SDS011;2352;48.180;11.478;2023-11-19T00:45:40;1.73;;;1.63;;
4676;SDS011;2352;48.180;11.478;2023-11-19T00:48:46;1.65;;;1.40;;
4676;SDS011;2352;48.180;11.478;2023-11-19T00:51:49;1.65;;;1.45;;
4676;SDS011;2352;48.180;11.478;2023-11-19T00:54:53;1.73;;;1.63;;
4676;SDS011;2352;48.180;11.478;2023-11-19T00:57:57;1.20;;;1.20;;
4676;SDS011;2352;48.180;11.478;2023-11-19T01:01:00;1.25;;;1.15;;
4676;SDS011;2352;48.180;11.478;2023-11-19T01:04:06;1.27;;;1.17;;
4676;SDS011;2352;48.180;11.478;2023-11-19T01:07:11;1.42;;;1.33;;
4676;SDS011;2352;48.180;11.478;2023-11-19T01:10:15;1.50;;;1.40;;
4676;SDS011;2352;48.180;11.478;2023-11-19T01:13:20;1.60;;;1.00;;
4676;SDS011;2352;48.180;11.478;2023-11-19T01:16:23;0.85;;;0.85;;
4676;SDS011;2352;48.180;11.478;2023-11-19T01:19:29;1.17;;;0.90;;
4676;SDS011;2352;48.180;11.478;2023-11-19T01:22:32;1.20;;;1.10;;
4676;SDS011;2352;48.180;11.478;2023-11-19T01:25:35;1.40;;;1.00;;
4676;SDS011;2352;48.180;11.478;2023-11-19T01:28:39;1.55;;;1.00;;
4676;SDS011;2352;48.180;11.478;2023-11-19T01:31:52;0.80;;;0.80;;
4676;SDS011;2352;48.180;11.478;2023-11-19T01:34:56;1.10;;;1.00;;
4676;SDS011;2352;48.180;11.478;2023-11-19T01:38:00;0.80;;;0.80;;
4676;SDS011;2352;48.180;11.478;2023-11-19T01:41:03;1.00;;;1.00;;
4676;SDS011;2352;48.180;11.478;2023-11-19T01:44:06;1.08;;;0.95;;
4676;SDS011;2352;48.180;11.478;2023-11-19T01:47:09;0.80;;;0.80;;
4676;SDS011;2352;48.180;11.478;2023-11-19T01:50:14;1.25;;;1.15;;
4676;SDS011;2352;48.180;11.478;2023-11-19T01:53:17;1.33;;;0.82;;
4676;SDS011;2352;48.180;11.478;2023-11-19T01:56:20;1.10;;;1.00;;
4676;SDS011;2352;48.180;11.478;2023-11-19T01:59:23;0.80;;;0.80;;
4676;SDS011;2352;48.180;11.478;2023-11-19T02:02:27;0.80;;;0.80;;
4676;SDS011;2352;48.180;11.478;2023-11-19T02:05:32;0.60;;;0.60;;
4676;SDS011;2352;48.180;11.478;2023-11-19T02:08:36;0.70;;;0.70;;
4676;SDS011;2352;48.180;11.478;2023-11-19T02:11:40;2.03;;;1.00;;
4676;SDS011;2352;48.180;11.478;2023-11-19T02:14:43;0.83;;;0.83;;
4676;SDS011;2352;48.180;11.478;2023-11-19T02:17:46;0.97;;;0.90;;
4676;SDS011;2352;48.180;11.478;2023-11-19T02:20:50;0.73;;;0.73;;
4676;SDS011;2352;48.180;11.478;2023-11-19T02:23:54;0.80;;;0.80;;
4676;SDS011;2352;48.180;11.478;2023-11-19T02:27:10;0.80;;;0.80;;
4676;SDS011;2352;48.180;11.478;2023-11-19T02:30:23;0.75;;;0.75;;
4676;SDS011;2352;48.180;11.478;2023-11-19T02:33:28;1.00;;;0.77;;
4676;SDS011;2352;48.180;11.478;2023-11-19T02:36:31;0.90;;;0.70;;
4676;SDS011;2352;48.180;11.478;2023-11-19T02:39:34;0.73;;;0.50;;
4676;SDS011;2352;48.180;11.478;2023-11-19T02:42:38;0.50;;;0.50;;
4676;SDS011;2352;48.180;11.478;2023-11-19T02:45:42;0.40;;;0.40;;
4676;SDS011;2352;48.180;11.478;2023-11-19T02:48:47;0.80;;;0.60;;
4676;SDS011;2352;48.180;11.478;2023-11-19T02:51:50;1.88;;;0.40;;
4676;SDS011;2352;48.180;11.478;2023-11-19T02:54:52;0.50;;;0.50;;
4676;SDS011;2352;48.180;11.478;2023-11-19T02:57:57;0.50;;;0.50;;
4676;SDS011;2352;48.180;11.478;2023-11-19T03:01:03;0.40;;;0.40;;
4676;SDS011;2352;48.180;11.478;2023-11-19T03:04:14;0.40;;;0.40;;
4676;SDS011;2352;48.180;11.478;2023-11-19T03:07:18;0.60;;;0.50;;
4676;SDS011;2352;48.180;11.478;2023-11-19T03:10:21;0.80;;;0.40;;
4676;SDS011;2352;48.180;11.478;2023-11-19T03:13:24;0.50;;;0.40;;
4676;SDS011;2352;48.180;11.478;2023-11-19T03:16:29;0.40;;;0.40;;
4676;SDS011;2352;48.180;11.478;2023-11-19T03:19:32;0.70;;;0.60;;
4676;SDS011;2352;48.180;11.478;2023-11-19T03:22:36;0.40;;;0.40;;
4676;SDS011;2352;48.180;11.478;2023-11-19T03:25:39;0.37;;;0.37;;
4676;SDS011;2352;48.180;11.478;2023-11-19T03:28:42;0.37;;;0.37;;
4676;SDS011;2352;48.180;11.478;2023-11-19T03:31:46;0.40;;;0.37;;
4676;SDS011;2352;48.180;11.478;2023-11-19T03:34:49;0.30;;;0.30;;
4676;SDS011;2352;48.180;11.478;2023-11-19T03:37:52;0.32;;;0.30;;
4676;SDS011;2352;48.180;11.478;2023-11-19T03:40:55;0.30;;;0.30;;
4676;SDS011;2352;48.180;11.478;2023-11-19T03:43:58;0.80;;;0.28;;
4676;SDS011;2352;48.180;11.478;2023-11-19T03:47:02;0.35;;;0.35;;
4676;SDS011;2352;48.180;11.478;2023-11-19T03:50:06;0.30;;;0.30;;
4676;SDS011;2352;48.180;11.478;2023-11-19T03:53:11;0.28;;;0.28;;
4676;SDS011;2352;48.180;11.478;2023-11-19T03:56:14;0.20;;;0.20;;
4676;SDS011;2352;48.180;11.478;2023-11-19T03:59:18;0.35;;;0.35;;
4676;SDS011;2352;48.180;11.478;2023-11-19T04:02:23;0.23;;;0.23;;
4676;SDS011;2352;48.180;11.478;2023-11-19T04:05:29;0.30;;;0.30;;
4676;SDS011;2352;48.180;11.478;2023-11-19T04:08:31;0.25;;;0.25;;
4676;SDS011;2352;48.180;11.478;2023-11-19T04:11:35;0.30;;;0.30;;
4676;SDS011;2352;48.180;11.478;2023-11-19T04:14:38;0.30;;;0.30;;
4676;SDS011;2352;48.180;11.478;2023-11-19T04:17:43;0.40;;;0.40;;
4676;SDS011;2352;48.180;11.478;2023-11-19T04:20:46;0.57;;;0.47;;
4676;SDS011;2352;48.180;11.478;2023-11-19T04:23:49;0.93;;;0.85;;
4676;SDS011;2352;48.180;11.478;2023-11-19T04:26:52;1.45;;;1.35;;
4676;SDS011;2352;48.180;11.478;2023-11-19T04:29:55;2.53;;;1.85;;
4676;SDS011;2352;48.180;11.478;2023-11-19T04:32:59;1.40;;;1.30;;
4676;SDS011;2352;48.180;11.478;2023-11-19T04:36:02;1.92;;;1.40;;
4676;SDS011;2352;48.180;11.478;2023-11-19T04:39:05;3.17;;;2.87;;
4676;SDS011;2352;48.180;11.478;2023-11-19T04:42:10;2.08;;;1.85;;
4676;SDS011;2352;48.180;11.478;2023-11-19T04:45:13;0.80;;;0.80;;
4676;SDS011;2352;48.180;11.478;2023-11-19T04:48:18;1.67;;;1.58;;
4676;SDS011;2352;48.180;11.478;2023-11-19T04:51:21;0.80;;;0.73;;
4676;SDS011;2352;48.180;11.478;2023-11-19T04:54:24;1.42;;;1.00;;
4676;SDS011;2352;48.180;11.478;2023-11-19T04:57:27;1.30;;;1.20;;
4676;SDS011;2352;48.180;11.478;2023-11-19T05:00:30;0.85;;;0.85;;
4676;SDS011;2352;48.180;11.478;2023-11-19T05:03:34;0.70;;;0.70;;
4676;SDS011;2352;48.180;11.478;2023-11-19T05:06:38;0.53;;;0.43;;
4676;SDS011;2352;48.180;11.478;2023-11-19T05:09:41;0.70;;;0.70;;
4676;SDS011;2352;48.180;11.478;2023-11-19T05:12:44;0.60;;;0.60;;
4676;SDS011;2352;48.180;11.478;2023-11-19T05:15:47;0.53;;;0.50;;
4676;SDS011;2352;48.180;11.478;2023-11-19T05:18:52;0.90;;;0.60;;
4676;SDS011;2352;48.180;11.478;2023-11-19T05:21:54;0.50;;;0.50;;
4676;SDS011;2352;48.180;11.478;2023-11-19T05:24:58;0.30;;;0.30;;
4676;SDS011;2352;48.180;11.478;2023-11-19T05:28:01;0.30;;;0.30;;
4676;SDS011;2352;48.180;11.478;2023-11-19T05:31:04;0.60;;;0.60;;
4676;SDS011;2352;48.180;11.478;2023-11-19T05:34:09;0.55;;;0.55;;
4676;SDS011;2352;48.180;11.478;2023-11-19T05:37:13;0.70;;;0.70;;
4676;SDS011;2352;48.180;11.478;2023-11-19T05:40:16;0.40;;;0.40;;
4676;SDS011;2352;48.180;11.478;2023-11-19T05:43:20;0.50;;;0.50;;
4676;SDS011;2352;48.180;11.478;2023-11-19T05:46:23;0.50;;;0.30;;
4676;SDS011;2352;48.180;11.478;2023-11-19T05:49:28;0.40;;;0.40;;
4676;SDS011;2352;48.180;11.478;2023-11-19T05:52:31;0.32;;;0.32;;
4676;SDS011;2352;48.180;11.478;2023-11-19T05:55:35;0.30;;;0.30;;
4676;SDS011;2352;48.180;11.478;2023-11-19T05:58:39;0.75;;;0.75;;
4676;SDS011;2352;48.180;11.478;2023-11-19T06:01:42;0.63;;;0.60;;
4676;SDS011;2352;48.180;11.478;2023-11-19T06:04:46;0.50;;;0.45;;
4676;SDS011;2352;48.180;11.478;2023-11-19T06:07:49;0.38;;;0.38;;
4676;SDS011;2352;48.180;11.478;2023-11-19T06:10:52;1.15;;;0.50;;
4676;SDS011;2352;48.180;11.478;2023-11-19T06:13:55;0.30;;;0.30;;
4676;SDS011;2352;48.180;11.478;2023-11-19T06:16:58;0.30;;;0.30;;
4676;SDS011;2352;48.180;11.478;2023-11-19T06:20:03;0.45;;;0.45;;
4676;SDS011;2352;48.180;11.478;2023-11-19T06:23:07;0.50;;;0.50;;
4676;SDS011;2352;48.180;11.478;2023-11-19T06:26:10;0.30;;;0.30;;
4676;SDS011;2352;48.180;11.478;2023-11-19T06:29:13;1.10;;;1.10;;
4676;SDS011;2352;48.180;11.478;2023-11-19T06:32:19;0.50;;;0.50;;
4676;SDS011;2352;48.180;11.478;2023-11-19T06:35:24;0.50;;;0.50;;
4676;SDS011;2352;48.180;11.478;2023-11-19T06:38:27;1.25;;;0.80;;
4676;SDS011;2352;48.180;11.478;2023-11-19T06:41:30;1.55;;;1.48;;
4676;SDS011;2352;48.180;11.478;2023-11-19T06:44:33;1.52;;;1.42;;
4676;SDS011;2352;48.180;11.478;2023-11-19T06:47:36;1.65;;;1.55;;
4676;SDS011;2352;48.180;11.478;2023-11-19T06:50:41;0.40;;;0.40;;
4676;SDS011;2352;48.180;11.478;2023-11-19T06:53:44;0.47;;;0.47;;
4676;SDS011;2352;48.180;11.478;2023-11-19T06:56:47;0.40;;;0.40;;
4676;SDS011;2352;48.180;11.478;2023-11-19T06:59:51;0.30;;;0.30;;
4676;SDS011;2352;48.180;11.478;2023-11-19T07:02:54;0.30;;;0.30;;
4676;SDS011;2352;48.180;11.478;2023-11-19T07:05:58;0.30;;;0.27;;
4676;SDS011;2352;48.180;11.478;2023-11-19T07:09:01;0.30;;;0.30;;
4676;SDS011;2352;48.180;11.478;2023-11-19T07:12:10;0.40;;;0.40;;
4676;SDS011;2352;48.180;11.478;2023-11-19T07:15:14;0.30;;;0.30;;
4676;SDS011;2352;48.180;11.478;2023-11-19T07:18:18;0.97;;;0.97;;
4676;SDS011;2352;48.180;11.478;2023-11-19T07:21:24;0.68;;;0.60;;
4676;SDS011;2352;48.180;11.478;2023-11-19T07:24:29;0.38;;;0.38;;
4676;SDS011;2352;48.180;11.478;2023-11-19T07:27:32;0.80;;;0.80;;
4676;SDS011;2352;48.180;11.478;2023-11-19T07:30:35;1.80;;;1.70;;
4676;SDS011;2352;48.180;11.478;2023-11-19T07:33:40;1.80;;;1.70;;
4676;SDS011;2352;48.180;11.478;2023-11-19T07:36:45;0.60;;;0.60;;
4676;SDS011;2352;48.180;11.478;2023-11-19T07:39:48;0.40;;;0.40;;
4676;SDS011;2352;48.180;11.478;2023-11-19T07:42:51;0.30;;;0.30;;
4676;SDS011;2352;48.180;11.478;2023-11-19T07:45:55;0.40;;;0.40;;
4676;SDS011;2352;48.180;11.478;2023-11-19T07:49:00;0.50;;;0.50;;
4676;SDS011;2352;48.180;11.478;2023-11-19T07:52:05;0.65;;;0.50;;
4676;SDS011;2352;48.180;11.478;2023-11-19T07:55:22;0.50;;;0.40;;
4676;SDS011;2352;48.180;11.478;2023-11-19T07:58:25;0.50;;;0.50;;
4676;SDS011;2352;48.180;11.478;2023-11-19T08:01:27;0.33;;;0.33;;
4676;SDS011;2352;48.180;11.478;2023-11-19T08:04:30;0.40;;;0.40;;
4676;SDS011;2352;48.180;11.478;2023-11-19T08:07:35;0.40;;;0.40;;
4676;SDS011;2352;48.180;11.478;2023-11-19T08:10:38;0.40;;;0.40;;
4676;SDS011;2352;48.180;11.478;2023-11-19T08:13:41;0.30;;;0.30;;
4676;SDS011;2352;48.180;11.478;2023-11-19T08:16:44;0.95;;;0.95;;
4676;SDS011;2352;48.180;11.478;2023-11-19T08:19:47;0.35;;;0.35;;
4676;SDS011;2352;48.180;11.478;2023-11-19T08:22:51;1.10;;;0.70;;
4676;SDS011;2352;48.180;11.478;2023-11-19T08:25:54;0.50;;;0.50;;
4676;SDS011;2352;48.180;11.478;2023-11-19T08:28:57;0.40;;;0.40;;
4676;SDS011;2352;48.180;11.478;2023-11-19T08:32:00;0.40;;;0.40;;
4676;SDS011;2352;48.180;11.478;2023-11-19T08:35:04;0.30;;;0.30;;
4676;SDS011;2352;48.180;11.478;2023-11-19T08:38:09;0.60;;;0.60;;
4676;SDS011;2352;48.180;11.478;2023-11-19T08:41:12;0.80;;;0.65;;
4676;SDS011;2352;48.180;11.478;2023-11-19T08:44:15;0.50;;;0.50;;
4676;SDS011;2352;48.180;11.478;2023-11-19T08:47:18;0.50;;;0.50;;
4676;SDS011;2352;48.180;11.478;2023-11-19T08:50:21;0.30;;;0.30;;
4676;SDS011;2352;48.180;11.478;2023-11-19T08:53:25;0.45;;;0.45;;
4676;SDS011;2352;48.180;11.478;2023-11-19T08:56:28;0.80;;;0.80;;
